createdAt,value
2023-05-14T00:00:39.783Z,13.20
2023-05-14T00:05:31.759Z,13.20
2023-05-14T00:10:24.020Z,13.10
2023-05-14T00:15:16.225Z,13.00
2023-05-14T00:20:09.782Z,13.10
2023-05-14T00:25:03.248Z,13.20
2023-05-14T00:29:55.412Z,13.20
2023-05-14T00:34:47.498Z,13.20
2023-05-14T00:39:40.033Z,13.30
2023-05-14T00:44:32.013Z,13.30
2023-05-14T00:49:24.428Z,13.30
2023-05-14T00:54:17.286Z,13.30
2023-05-14T00:59:09.433Z,13.30
2023-05-14T01:04:01.832Z,13.30
2023-05-14T01:15:30.858Z,13.10
2023-05-14T01:20:23.751Z,13.00
2023-05-14T01:25:17.211Z,12.90
2023-05-14T01:30:17.044Z,12.90
2023-05-14T01:35:11.118Z,12.80
2023-05-14T01:40:05.182Z,12.80
2023-05-14T01:44:58.130Z,12.80
2023-05-14T01:49:50.719Z,12.90
2023-05-14T01:54:42.848Z,13.00
2023-05-14T01:59:34.885Z,12.90
2023-05-14T02:04:26.966Z,12.80
2023-05-14T02:09:19.058Z,12.70
2023-05-14T02:14:12.025Z,12.60
2023-05-14T02:19:04.144Z,12.50
2023-05-14T02:23:56.480Z,12.50
2023-05-14T02:28:48.561Z,12.30
2023-05-14T02:33:40.697Z,12.10
2023-05-14T02:38:32.742Z,12.00
2023-05-14T02:43:24.778Z,12.10
2023-05-14T02:48:17.368Z,12.00
2023-05-14T02:53:09.413Z,11.80
2023-05-14T02:58:01.494Z,11.60
2023-05-14T03:02:53.606Z,11.50
2023-05-14T03:07:46.188Z,11.30
2023-05-14T03:12:38.289Z,11.20
2023-05-14T03:17:30.398Z,11.10
2023-05-14T03:22:22.453Z,11.00
2023-05-14T03:27:14.468Z,10.90
2023-05-14T03:32:07.114Z,10.80
2023-05-14T03:36:59.323Z,10.80
2023-05-14T03:41:51.537Z,10.80
2023-05-14T03:46:43.680Z,10.80
2023-05-14T03:51:36.390Z,10.90
2023-05-14T03:56:30.652Z,11.00
2023-05-14T04:01:22.750Z,11.20
2023-05-14T04:06:16.187Z,11.30
2023-05-14T04:11:08.393Z,11.40
2023-05-14T04:16:00.695Z,12.50
2023-05-14T04:20:54.120Z,14.30
2023-05-14T04:25:46.167Z,14.50
2023-05-14T04:30:41.804Z,17.10
2023-05-14T04:35:33.821Z,18.90
2023-05-14T04:40:27.372Z,20.80
2023-05-14T04:45:20.020Z,22.20
2023-05-14T04:50:12.642Z,23.40
2023-05-14T04:55:06.686Z,24.50
2023-05-14T05:00:00.187Z,25.20
2023-05-14T05:04:52.236Z,25.00
2023-05-14T05:09:44.370Z,25.70
2023-05-14T05:14:38.824Z,26.90
2023-05-14T05:19:42.508Z,28.30
2023-05-14T05:24:38.307Z,28.80
2023-05-14T05:29:30.351Z,29.40
2023-05-14T05:34:22.422Z,30.90
2023-05-14T05:39:14.396Z,31.80
2023-05-14T05:44:06.561Z,31.80
2023-05-14T05:48:58.557Z,32.10
2023-05-14T05:53:50.637Z,32.50
2023-05-14T05:58:42.695Z,33.60
2023-05-14T06:03:34.849Z,34.80
2023-05-14T06:08:26.872Z,35.70
2023-05-14T06:13:19.406Z,35.80
2023-05-14T06:18:11.576Z,36.60
2023-05-14T06:23:03.745Z,37.40
2023-05-14T06:27:55.867Z,37.90
2023-05-14T06:32:47.986Z,37.40
2023-05-14T06:37:40.109Z,38.20
2023-05-14T06:42:32.233Z,38.00
2023-05-14T06:47:24.357Z,37.90
2023-05-14T06:52:16.429Z,38.90
2023-05-14T06:57:08.429Z,39.10
2023-05-14T07:02:01.340Z,39.70
2023-05-14T07:06:53.327Z,39.30
2023-05-14T07:11:45.415Z,38.70
2023-05-14T07:16:39.021Z,38.50
2023-05-14T07:21:31.830Z,39.20
2023-05-14T07:26:24.611Z,39.10
2023-05-14T07:31:16.727Z,37.80
2023-05-14T07:36:09.056Z,38.20
2023-05-14T07:41:01.162Z,35.00
2023-05-14T07:45:53.232Z,33.40
2023-05-14T07:50:46.466Z,33.40
2023-05-14T07:55:38.439Z,33.90
2023-05-14T08:00:33.560Z,34.40
2023-05-14T08:05:26.598Z,33.90
2023-05-14T08:10:21.211Z,34.40
2023-05-14T08:15:16.191Z,33.20
2023-05-14T08:20:09.938Z,31.90
2023-05-14T08:25:05.996Z,32.40
2023-05-14T08:29:59.235Z,32.60
2023-05-14T08:34:51.854Z,34.60
2023-05-14T08:39:44.513Z,35.60
2023-05-14T08:44:45.479Z,34.20
2023-05-14T08:49:42.745Z,33.60
2023-05-14T08:54:35.322Z,34.00
2023-05-14T08:59:27.664Z,31.60
2023-05-14T09:04:25.161Z,34.20
2023-05-14T09:09:17.537Z,35.10
2023-05-14T09:14:10.452Z,33.80
2023-05-14T09:19:03.285Z,33.70
2023-05-14T09:23:57.706Z,30.60
2023-05-14T09:28:49.712Z,28.10
2023-05-14T09:33:41.709Z,27.90
2023-05-14T09:38:34.290Z,26.90
2023-05-14T09:43:26.435Z,26.30
2023-05-14T09:48:18.728Z,25.90
2023-05-14T09:53:11.339Z,26.80
2023-05-14T09:58:04.051Z,26.20
2023-05-14T10:02:57.969Z,28.00
2023-05-14T10:07:53.335Z,29.00
2023-05-14T10:13:01.834Z,33.20
2023-05-14T10:17:58.164Z,34.50
2023-05-14T10:22:51.328Z,33.00
2023-05-14T10:27:43.909Z,33.20
2023-05-14T10:32:38.114Z,33.20
2023-05-14T10:37:30.577Z,31.40
2023-05-14T10:42:23.717Z,29.70
2023-05-14T10:47:19.560Z,29.80
2023-05-14T10:52:12.686Z,29.90
2023-05-14T10:57:09.379Z,29.80
2023-05-14T11:02:05.059Z,27.40
2023-05-14T11:06:57.632Z,28.30
2023-05-14T11:11:49.806Z,29.90
2023-05-14T11:16:42.191Z,31.00
2023-05-14T11:21:34.317Z,30.20
2023-05-14T11:26:26.468Z,31.00
2023-05-14T11:31:19.162Z,29.70
2023-05-14T11:36:12.589Z,27.30
2023-05-14T11:41:05.803Z,26.20
2023-05-14T11:45:59.093Z,25.80
2023-05-14T11:50:53.238Z,25.00
2023-05-14T11:55:46.741Z,24.70
2023-05-14T12:00:39.998Z,24.90
2023-05-14T12:05:32.279Z,25.10
2023-05-14T12:10:24.992Z,25.60
2023-05-14T12:15:18.166Z,25.20
2023-05-14T12:20:12.464Z,24.90
2023-05-14T12:25:13.503Z,25.90
2023-05-14T12:30:20.575Z,26.60
2023-05-14T12:35:13.624Z,26.10
2023-05-14T12:40:11.547Z,24.60
2023-05-14T12:45:07.272Z,25.00
2023-05-14T12:49:59.542Z,25.40
2023-05-14T12:54:51.534Z,25.70
2023-05-14T12:59:43.496Z,25.30
2023-05-14T13:04:35.722Z,25.90
2023-05-14T13:09:27.903Z,25.50
2023-05-14T13:14:20.352Z,25.10
2023-05-14T13:19:12.460Z,24.30
2023-05-14T13:24:04.718Z,24.20
2023-05-14T13:28:56.722Z,23.90
2023-05-14T13:33:48.745Z,23.80
2023-05-14T13:38:40.755Z,23.80
2023-05-14T13:43:34.385Z,23.80
2023-05-14T13:48:27.691Z,24.10
2023-05-14T13:53:22.602Z,23.30
2023-05-14T13:58:14.928Z,22.90
2023-05-14T14:03:08.341Z,23.00
2023-05-14T14:08:01.097Z,23.00
2023-05-14T14:13:00.198Z,23.30
2023-05-14T14:17:52.225Z,23.40
2023-05-14T14:22:45.004Z,23.30
2023-05-14T14:27:38.818Z,23.60
2023-05-14T14:32:30.887Z,23.70
2023-05-14T14:37:23.239Z,23.10
2023-05-14T14:42:15.424Z,22.40
2023-05-14T14:47:07.505Z,22.10
2023-05-14T14:51:59.506Z,21.80
2023-05-14T14:56:52.536Z,21.80
2023-05-14T15:01:44.739Z,22.10
2023-05-14T15:06:36.829Z,22.20
2023-05-14T15:11:29.498Z,22.20
2023-05-14T15:16:21.558Z,22.10
2023-05-14T15:21:13.719Z,22.20
2023-05-14T15:26:08.691Z,22.00
2023-05-14T15:31:02.504Z,21.70
2023-05-14T15:35:54.536Z,21.50
2023-05-14T15:40:46.579Z,21.50
2023-05-14T15:45:38.986Z,21.30
2023-05-14T15:50:31.374Z,21.30
2023-05-14T15:55:23.392Z,21.10
2023-05-14T16:00:16.429Z,21.10
2023-05-14T16:05:08.901Z,21.20
2023-05-14T16:10:00.909Z,21.30
2023-05-14T16:14:53.044Z,21.40
2023-05-14T16:19:45.139Z,21.40
2023-05-14T16:24:38.366Z,21.30
2023-05-14T16:29:31.218Z,20.90
2023-05-14T16:34:23.258Z,20.90
2023-05-14T16:39:15.437Z,20.00
2023-05-14T16:44:07.582Z,19.70
2023-05-14T16:48:59.609Z,19.50
2023-05-14T16:53:52.158Z,19.30
2023-05-14T16:58:44.413Z,19.20
2023-05-14T17:03:36.815Z,19.20
2023-05-14T17:08:33.664Z,19.20
2023-05-14T17:13:25.864Z,19.20
2023-05-14T17:18:18.237Z,19.20
2023-05-14T17:23:10.620Z,19.30
2023-05-14T17:28:02.848Z,19.30
2023-05-14T17:32:54.823Z,19.20
2023-05-14T17:37:47.501Z,19.20
2023-05-14T17:42:39.667Z,19.10
2023-05-14T17:47:31.830Z,18.90
2023-05-14T17:52:23.906Z,18.70
2023-05-14T17:57:16.280Z,18.60
2023-05-14T18:02:08.410Z,18.60
2023-05-14T18:07:01.908Z,18.40
2023-05-14T18:11:55.463Z,18.30
2023-05-14T18:16:49.012Z,18.10
2023-05-14T18:21:42.931Z,18.00
2023-05-14T18:26:35.324Z,17.90
2023-05-14T18:31:27.973Z,17.80
2023-05-14T18:36:20.458Z,17.70
2023-05-14T18:41:12.823Z,17.60
2023-05-14T18:46:04.975Z,17.60
2023-05-14T18:50:57.201Z,17.50
2023-05-14T18:55:49.262Z,17.30
2023-05-14T19:00:41.367Z,17.10
2023-05-14T19:05:33.426Z,17.00
2023-05-14T19:10:25.549Z,16.80
2023-05-14T19:15:17.640Z,16.60
2023-05-14T19:20:10.368Z,16.40
2023-05-14T19:25:02.760Z,16.30
2023-05-14T19:29:55.784Z,16.20
2023-05-14T19:34:49.491Z,16.10
2023-05-14T19:39:43.046Z,16.10
2023-05-14T19:44:35.111Z,15.90
2023-05-14T19:49:27.215Z,15.90
2023-05-14T19:54:19.199Z,15.80
2023-05-14T19:59:11.330Z,15.60
2023-05-14T20:04:03.853Z,15.70
2023-05-14T20:08:56.014Z,15.60
2023-05-14T20:13:48.280Z,15.50
2023-05-14T20:18:40.423Z,15.40
2023-05-14T20:23:32.628Z,15.30
2023-05-14T20:28:24.629Z,15.40
2023-05-14T20:33:17.013Z,15.20
2023-05-14T20:38:09.122Z,15.10
2023-05-14T20:43:01.921Z,15.10
2023-05-14T20:47:53.990Z,15.10
2023-05-14T20:52:46.067Z,15.00
2023-05-14T20:57:38.131Z,15.00
2023-05-14T21:02:30.488Z,15.00
2023-05-14T21:07:22.796Z,15.00
2023-05-14T21:12:14.819Z,15.00
2023-05-14T21:17:08.188Z,14.80
2023-05-14T21:22:00.298Z,14.80
2023-05-14T21:26:53.679Z,14.70
2023-05-14T21:31:47.148Z,14.60
2023-05-14T21:36:39.313Z,14.50
2023-05-14T21:41:32.378Z,14.50
2023-05-14T21:46:24.439Z,14.40
2023-05-14T21:51:17.064Z,14.40
2023-05-14T21:56:09.184Z,14.40
2023-05-14T22:01:02.424Z,14.30
2023-05-14T22:05:54.532Z,14.20
2023-05-14T22:10:47.375Z,14.10
2023-05-14T22:15:40.676Z,14.10
2023-05-14T22:20:32.723Z,14.10
2023-05-14T22:25:25.193Z,14.20
2023-05-14T22:30:17.582Z,14.30
2023-05-14T22:35:09.768Z,14.40
2023-05-14T22:40:04.838Z,14.40
2023-05-14T22:44:57.288Z,14.40
2023-05-14T22:49:49.305Z,14.40
2023-05-14T22:54:41.255Z,14.40
2023-05-14T22:59:33.324Z,14.40
2023-05-14T23:04:25.583Z,14.40
2023-05-14T23:09:17.636Z,14.40
2023-05-14T23:14:09.703Z,14.40
2023-05-14T23:19:04.307Z,14.30
2023-05-14T23:23:56.601Z,14.20
2023-05-14T23:28:48.725Z,14.10
2023-05-14T23:33:41.155Z,14.10
2023-05-14T23:38:33.293Z,13.90
2023-05-14T23:43:25.781Z,13.80
2023-05-14T23:48:18.569Z,13.70
2023-05-14T23:53:10.758Z,13.60
2023-05-14T23:58:03.066Z,13.50
